Time;durP1;ratioP1;P1;durP2;ratioP2;P2;SDS_P1;SDS_P2;PMS_P1;PMS_P2;Temp;Humidity;BMP_temperature;BMP_pressure;BME280_temperature;BME280_humidity;BME280_pressure;Samples;Min_cycle;Max_cycle;Signal;HPM_P1;HPM_P2
2022/05/12 00:00:49;;;;;;;;;;;24.10;57.60;;;;;;5004435;28;20128;-58
2022/05/12 00:03:16;;;;;;;;;;;24.10;56.90;;;;;;5003897;28;19957;-59
2022/05/12 00:05:42;;;;;;;;;;;24.00;57.50;;;;;;5000388;28;19913;-59
2022/05/12 00:08:07;;;;;;;;;;;24.10;56.90;;;;;;4995359;28;19918;-55
2022/05/12 00:10:33;;;;;;;;;;;24.10;56.90;;;;;;4989072;28;20406;-56
2022/05/12 00:12:58;;;;;;;;;;;24.10;56.90;;;;;;5001564;28;19920;-56
2022/05/12 00:15:25;;;;;;;;;;;24.10;56.90;;;;;;4989080;28;19988;-55
2022/05/12 00:17:50;;;;;;;;;;;24.10;56.90;;;;;;4983380;28;20268;-56
2022/05/12 00:20:16;;;;;;;;;;;24.00;56.80;;;;;;5000973;28;19920;-57
2022/05/12 00:25:15;;;;;;;;;;;24.10;56.80;;;;;;4997860;28;19929;-56
2022/05/12 00:27:41;;;;;;;;;;;24.10;56.90;;;;;;5018007;28;19914;-53
2022/05/12 00:30:09;;;;;;;;;;;24.00;56.80;;;;;;5001324;28;19925;-51
2022/05/12 00:32:38;;;;;;;;;;;24.10;56.80;;;;;;5001708;28;19921;-51
2022/05/12 00:35:04;;;;;;;;;;;24.00;56.70;;;;;;5021711;28;19917;-54
2022/05/12 00:37:30;;;;;;;;;;;24.00;56.80;;;;;;5022579;28;19933;-54
2022/05/12 00:39:56;;;;;;;;;;;24.10;56.80;;;;;;5003799;28;19913;-53
2022/05/12 00:42:21;;;;;;;;;;;24.10;56.80;;;;;;5003372;28;19921;-56
2022/05/12 00:44:47;;;;;;;;;;;24.10;56.80;;;;;;5021820;28;19974;-57
2022/05/12 00:47:12;;;;;;;;;;;24.10;56.80;;;;;;5023280;28;19924;-56
2022/05/12 00:49:38;;;;;;;;;;;24.00;56.70;;;;;;5006260;28;19918;-51
2022/05/12 00:52:10;;;;;;;;;;;24.10;56.80;;;;;;5002040;28;20442;-58
2022/05/12 00:54:44;;;;;;;;;;;24.00;56.70;;;;;;5019274;28;19921;-58
2022/05/12 00:57:11;;;;;;;;;;;24.10;56.70;;;;;;5022350;28;20374;-54
2022/05/12 00:59:36;;;;;;;;;;;24.00;56.70;;;;;;5011966;28;19917;-53
2022/05/12 01:02:02;;;;;;;;;;;24.00;56.70;;;;;;5005721;28;19913;-57
2022/05/12 01:04:29;;;;;;;;;;;24.10;56.70;;;;;;5017213;28;20015;-54
2022/05/12 01:06:55;;;;;;;;;;;24.00;56.60;;;;;;5025255;28;19921;-49
2022/05/12 01:09:20;;;;;;;;;;;24.00;56.60;;;;;;5009291;28;19964;-51
2022/05/12 01:11:47;;;;;;;;;;;24.10;56.70;;;;;;5006743;28;19917;-54
2022/05/12 01:14:13;;;;;;;;;;;24.00;56.60;;;;;;5007600;28;19918;-54
2022/05/12 01:16:45;;;;;;;;;;;24.00;56.60;;;;;;5026151;28;20028;-52
2022/05/12 01:19:12;;;;;;;;;;;24.00;56.60;;;;;;5013258;28;19917;-53
2022/05/12 01:21:38;;;;;;;;;;;24.00;56.60;;;;;;5007361;28;19932;-52
2022/05/12 01:24:03;;;;;;;;;;;24.00;56.60;;;;;;5011224;28;19921;-50
2022/05/12 01:26:29;;;;;;;;;;;24.00;56.60;;;;;;5019020;28;19964;-52
2022/05/12 01:28:55;;;;;;;;;;;24.00;56.60;;;;;;5018681;28;20309;-56
2022/05/12 01:31:20;;;;;;;;;;;24.00;56.60;;;;;;5005093;28;19972;-55
2022/05/12 01:33:46;;;;;;;;;;;24.00;56.60;;;;;;5006698;28;19913;-51
2022/05/12 01:36:11;;;;;;;;;;;24.00;56.60;;;;;;5025474;28;19940;-53
2022/05/12 01:38:37;;;;;;;;;;;24.00;56.60;;;;;;5024477;28;19936;-51
2022/05/12 01:41:02;;;;;;;;;;;24.00;56.60;;;;;;5005432;28;19914;-52
2022/05/12 01:43:27;;;;;;;;;;;24.00;56.60;;;;;;5005600;28;19917;-53
2022/05/12 01:45:53;;;;;;;;;;;24.00;56.60;;;;;;5023218;28;20409;-50
2022/05/12 01:48:18;;;;;;;;;;;24.00;56.60;;;;;;5023617;28;19971;-54
2022/05/12 01:50:44;;;;;;;;;;;24.00;56.60;;;;;;5008024;28;19922;-53
2022/05/12 01:53:10;;;;;;;;;;;24.00;56.50;;;;;;5005746;28;19913;-54
2022/05/12 01:55:36;;;;;;;;;;;24.00;56.60;;;;;;5019064;28;19924;-52
2022/05/12 01:58:01;;;;;;;;;;;24.00;56.60;;;;;;5024894;28;19920;-53
2022/05/12 02:00:27;;;;;;;;;;;24.00;56.50;;;;;;5003414;28;20016;-55
2022/05/12 02:02:53;;;;;;;;;;;24.00;56.60;;;;;;5004121;28;20506;-53
2022/05/12 02:05:18;;;;;;;;;;;24.00;56.50;;;;;;5015273;28;19917;-54
2022/05/12 02:07:45;;;;;;;;;;;24.00;56.50;;;;;;5024586;28;19963;-54
2022/05/12 02:10:11;;;;;;;;;;;24.00;56.50;;;;;;5013814;28;19925;-55
2022/05/12 02:12:37;;;;;;;;;;;24.00;56.50;;;;;;5005458;28;20330;-54
2022/05/12 02:15:03;;;;;;;;;;;24.00;56.50;;;;;;5010590;28;19920;-54
2022/05/12 02:17:28;;;;;;;;;;;24.00;56.50;;;;;;5024007;28;20024;-48
2022/05/12 02:19:54;;;;;;;;;;;24.00;56.50;;;;;;5018136;28;19913;-53
2022/05/12 02:22:19;;;;;;;;;;;24.00;56.50;;;;;;5004800;28;19928;-54
2022/05/12 02:24:45;;;;;;;;;;;24.00;56.50;;;;;;5006769;28;19940;-54
2022/05/12 02:27:11;;;;;;;;;;;24.00;56.50;;;;;;5023222;28;19917;-55
2022/05/12 02:29:36;;;;;;;;;;;24.00;56.50;;;;;;5022511;28;19972;-49
2022/05/12 02:32:02;;;;;;;;;;;24.00;56.40;;;;;;5003560;28;19918;-55
2022/05/12 02:34:27;;;;;;;;;;;24.00;57.10;;;;;;5004586;28;19918;-51
2022/05/12 02:37:02;;;;;;;;;;;24.00;56.40;;;;;;5023120;28;19921;-50
2022/05/12 02:39:36;;;;;;;;;;;24.00;56.50;;;;;;5023402;28;20774;-51
2022/05/12 02:42:03;;;;;;;;;;;24.00;56.40;;;;;;5004671;28;19914;-49
2022/05/12 02:44:28;;;;;;;;;;;24.00;56.40;;;;;;5002692;28;19913;-52
2022/05/12 02:46:53;;;;;;;;;;;24.00;56.50;;;;;;5022179;28;19975;-55
2022/05/12 02:49:19;;;;;;;;;;;24.00;56.40;;;;;;5021262;28;19971;-54
2022/05/12 02:51:44;;;;;;;;;;;24.00;56.40;;;;;;5008197;28;19918;-51
2022/05/12 02:54:11;;;;;;;;;;;24.00;56.40;;;;;;5004774;28;19918;-49
2022/05/12 02:56:37;;;;;;;;;;;24.00;56.40;;;;;;5018457;28;20321;-53
2022/05/12 02:59:04;;;;;;;;;;;24.00;56.40;;;;;;5021606;28;19925;-56
2022/05/12 03:01:30;;;;;;;;;;;24.00;56.40;;;;;;5010915;28;19918;-55
2022/05/12 03:03:55;;;;;;;;;;;24.00;56.40;;;;;;5004409;28;19918;-53
2022/05/12 03:06:20;;;;;;;;;;;24.00;56.40;;;;;;5014588;28;19913;-51
2022/05/12 03:08:46;;;;;;;;;;;24.00;56.40;;;;;;5022124;28;19917;-51
2022/05/12 03:11:11;;;;;;;;;;;24.00;56.40;;;;;;5014783;28;19971;-54
2022/05/12 03:13:37;;;;;;;;;;;24.00;56.40;;;;;;5003325;28;20112;-56
2022/05/12 03:16:03;;;;;;;;;;;24.00;56.40;;;;;;5010168;28;19917;-52
2022/05/12 03:18:29;;;;;;;;;;;24.00;56.30;;;;;;5021258;28;19913;-49
2022/05/12 03:20:54;;;;;;;;;;;24.00;56.40;;;;;;5018389;28;20375;-54
2022/05/12 03:23:22;;;;;;;;;;;24.00;56.40;;;;;;5003340;28;19921;-52
2022/05/12 03:25:48;;;;;;;;;;;24.00;56.40;;;;;;5005545;28;19917;-52
2022/05/12 03:28:13;;;;;;;;;;;24.00;56.40;;;;;;5021934;28;19917;-53
2022/05/12 03:30:39;;;;;;;;;;;24.00;56.40;;;;;;5020940;28;19971;-54
2022/05/12 03:33:04;;;;;;;;;;;24.00;56.40;;;;;;5000432;28;19921;-51
2022/05/12 03:35:30;;;;;;;;;;;24.00;56.40;;;;;;5003134;28;19944;-54
2022/05/12 03:37:55;;;;;;;;;;;23.90;56.30;;;;;;5022124;28;19917;-53
2022/05/12 03:40:20;;;;;;;;;;;23.90;56.30;;;;;;5015248;28;19921;-51
2022/05/12 03:42:46;;;;;;;;;;;24.00;56.40;;;;;;5003649;28;19913;-54
2022/05/12 03:45:12;;;;;;;;;;;23.90;56.30;;;;;;5001927;28;19914;-58
2022/05/12 03:47:38;;;;;;;;;;;24.00;56.40;;;;;;5018345;28;19913;-54
2022/05/12 03:50:11;;;;;;;;;;;24.00;56.40;;;;;;5020605;28;19921;-54
2022/05/12 03:52:37;;;;;;;;;;;24.00;56.40;;;;;;5007491;28;19913;-53
2022/05/12 03:55:04;;;;;;;;;;;24.00;56.40;;;;;;5002358;28;19917;-56
2022/05/12 03:57:30;;;;;;;;;;;24.00;56.40;;;;;;5014680;28;20390;-54
2022/05/12 03:59:55;;;;;;;;;;;24.00;56.40;;;;;;5018977;28;19917;-51
2022/05/12 04:02:21;;;;;;;;;;;24.00;56.40;;;;;;5011296;28;19917;-55
2022/05/12 04:04:46;;;;;;;;;;;24.00;56.40;;;;;;5001368;28;19928;-54
2022/05/12 04:07:12;;;;;;;;;;;24.00;56.40;;;;;;5000286;28;19922;-59
2022/05/12 04:09:38;;;;;;;;;;;23.90;56.30;;;;;;5001877;28;20036;-52
2022/05/12 04:12:07;;;;;;;;;;;23.90;56.30;;;;;;5009694;28;19920;-53
2022/05/12 04:14:33;;;;;;;;;;;23.90;56.30;;;;;;5022486;28;20059;-56
2022/05/12 04:16:59;;;;;;;;;;;23.90;56.30;;;;;;5016601;28;19917;-52
2022/05/12 04:19:24;;;;;;;;;;;24.00;56.30;;;;;;4999518;28;19924;-52
2022/05/12 04:21:52;;;;;;;;;;;24.00;56.30;;;;;;5006509;28;19913;-55
2022/05/12 04:24:18;;;;;;;;;;;24.00;56.30;;;;;;5022216;28;20566;-51
2022/05/12 04:26:43;;;;;;;;;;;24.00;56.10;;;;;;5019172;28;19924;-55
2022/05/12 04:29:09;;;;;;;;;;;24.00;56.10;;;;;;5005061;28;20381;-57
2022/05/12 04:31:34;;;;;;;;;;;24.00;56.00;;;;;;5007996;28;19977;-54
2022/05/12 04:36:43;;;;;;;;;;;23.90;55.90;;;;;;5025393;28;19924;-57
2022/05/12 04:39:09;;;;;;;;;;;23.90;55.90;;;;;;5006124;28;19917;-49
2022/05/12 04:41:35;;;;;;;;;;;23.90;55.50;;;;;;5006280;28;19918;-50
2022/05/12 04:44:00;;;;;;;;;;;23.90;55.40;;;;;;5025940;28;19943;-54
2022/05/12 04:46:26;;;;;;;;;;;23.90;55.40;;;;;;5026631;28;20008;-57
2022/05/12 04:48:52;;;;;;;;;;;23.90;55.20;;;;;;5008178;28;20004;-52
2022/05/12 04:51:17;;;;;;;;;;;24.00;55.80;;;;;;5005460;28;19926;-55
2022/05/12 04:53:43;;;;;;;;;;;24.00;56.00;;;;;;5021670;28;20012;-50
2022/05/12 04:56:08;;;;;;;;;;;24.00;56.00;;;;;;5025781;28;19920;-55
2022/05/12 04:58:34;;;;;;;;;;;24.00;57.00;;;;;;5011381;28;20371;-54
2022/05/12 05:00:59;;;;;;;;;;;24.00;57.20;;;;;;5005963;28;19960;-50
2022/05/12 05:03:25;;;;;;;;;;;24.00;57.10;;;;;;5017784;28;19924;-56
2022/05/12 05:05:50;;;;;;;;;;;24.00;57.50;;;;;;5025715;28;19917;-50
2022/05/12 05:08:17;;;;;;;;;;;24.00;57.50;;;;;;5014163;28;19914;-50
2022/05/12 05:10:43;;;;;;;;;;;24.00;57.10;;;;;;5001600;28;20442;-54
2022/05/12 05:13:08;;;;;;;;;;;24.00;57.70;;;;;;5014124;28;19921;-52
2022/05/12 05:15:34;;;;;;;;;;;24.00;57.60;;;;;;5023905;28;20263;-54
2022/05/12 05:18:00;;;;;;;;;;;24.00;57.20;;;;;;5017910;28;20012;-54
2022/05/12 05:20:26;;;;;;;;;;;24.00;57.10;;;;;;4999426;28;20008;-54
2022/05/12 05:22:51;;;;;;;;;;;23.90;56.90;;;;;;5010725;28;19959;-56
2022/05/12 05:25:17;;;;;;;;;;;24.00;56.60;;;;;;5024636;28;20016;-57
2022/05/12 05:27:43;;;;;;;;;;;23.90;56.10;;;;;;5022408;28;20322;-56
2022/05/12 05:30:10;;;;;;;;;;;23.90;55.80;;;;;;5003788;28;20008;-53
2022/05/12 05:32:36;;;;;;;;;;;23.90;55.80;;;;;;5005754;28;19921;-52
2022/05/12 05:35:01;;;;;;;;;;;24.00;55.70;;;;;;5021253;28;19967;-57
2022/05/12 05:37:27;;;;;;;;;;;23.90;55.70;;;;;;5022313;28;19935;-53
2022/05/12 05:39:52;;;;;;;;;;;24.00;55.50;;;;;;5003217;28;19917;-55
2022/05/12 05:42:18;;;;;;;;;;;23.90;55.30;;;;;;5003218;28;19913;-53
2022/05/12 05:44:43;;;;;;;;;;;23.90;55.20;;;;;;5021241;28;20000;-56
2022/05/12 05:47:09;;;;;;;;;;;23.90;55.00;;;;;;5025201;28;19955;-53
2022/05/12 05:49:35;;;;;;;;;;;23.90;55.10;;;;;;5005943;28;19917;-51
2022/05/12 05:54:44;;;;;;;;;;;24.00;56.30;;;;;;5018395;28;19940;-54
2022/05/12 05:57:10;;;;;;;;;;;24.00;56.60;;;;;;5024433;28;20390;-51
2022/05/12 05:59:35;;;;;;;;;;;24.00;56.70;;;;;;5008826;28;19918;-57
2022/05/12 06:02:02;;;;;;;;;;;24.00;57.10;;;;;;5003834;28;19913;-52
2022/05/12 06:04:27;;;;;;;;;;;24.00;56.80;;;;;;5015680;28;19924;-57
2022/05/12 06:06:53;;;;;;;;;;;24.00;56.90;;;;;;5023939;28;19921;-50
2022/05/12 06:09:19;;;;;;;;;;;24.00;57.10;;;;;;5012052;28;20283;-55
2022/05/12 06:11:46;;;;;;;;;;;24.00;57.00;;;;;;5003972;28;19922;-55
2022/05/12 06:14:11;;;;;;;;;;;24.00;56.70;;;;;;5012313;28;19939;-53
2022/05/12 06:16:37;;;;;;;;;;;24.00;56.40;;;;;;5023263;28;19913;-55
2022/05/12 06:19:02;;;;;;;;;;;24.00;56.70;;;;;;5015780;28;26415;-54
2022/05/12 06:21:28;;;;;;;;;;;23.90;56.60;;;;;;5003815;28;19918;-53
2022/05/12 06:23:53;;;;;;;;;;;24.00;56.70;;;;;;5012034;23;19928;-57
2022/05/12 06:26:20;;;;;;;;;;;23.90;56.90;;;;;;4982504;28;20354;-56
2022/05/12 06:28:46;;;;;;;;;;;23.90;56.80;;;;;;4985197;28;20228;-50
2022/05/12 06:31:12;;;;;;;;;;;23.90;56.70;;;;;;5001422;28;19940;-50
2022/05/12 06:33:38;;;;;;;;;;;23.90;56.60;;;;;;5002724;28;19989;-49
2022/05/12 06:36:04;;;;;;;;;;;23.90;56.60;;;;;;4982445;28;19968;-51
2022/05/12 06:38:30;;;;;;;;;;;23.90;56.60;;;;;;4980865;28;20064;-53
2022/05/12 06:40:55;;;;;;;;;;;23.90;56.90;;;;;;5002982;28;20441;-56
2022/05/12 06:43:21;;;;;;;;;;;23.90;56.70;;;;;;5004650;28;19928;-53
2022/05/12 06:45:47;;;;;;;;;;;23.90;56.80;;;;;;5003555;28;20069;-54
2022/05/12 06:48:12;;;;;;;;;;;23.90;56.90;;;;;;5004308;28;19913;-50
2022/05/12 06:50:38;;;;;;;;;;;23.90;57.00;;;;;;4987039;28;19944;-53
2022/05/12 06:53:03;;;;;;;;;;;23.90;57.20;;;;;;4983543;28;19949;-57
2022/05/12 06:55:29;;;;;;;;;;;23.90;57.20;;;;;;4997663;28;20432;-54
2022/05/12 06:57:55;;;;;;;;;;;23.90;57.20;;;;;;5004071;28;20018;-52
2022/05/12 07:00:20;;;;;;;;;;;23.90;57.10;;;;;;4991461;28;19957;-53
2022/05/12 07:02:46;;;;;;;;;;;23.90;57.10;;;;;;4986507;28;19917;-56
2022/05/12 07:05:16;;;;;;;;;;;23.90;57.30;;;;;;4997904;28;20353;-51
2022/05/12 07:07:43;;;;;;;;;;;23.90;57.20;;;;;;5004256;28;20448;-55
2022/05/12 07:10:09;;;;;;;;;;;23.90;57.90;;;;;;4993758;28;20008;-51
2022/05/12 07:12:34;;;;;;;;;;;23.90;57.40;;;;;;4984179;28;20352;-54
2022/05/12 07:15:00;;;;;;;;;;;23.80;57.10;;;;;;4990566;28;19924;-52
2022/05/12 07:17:25;;;;;;;;;;;23.90;57.10;;;;;;5004455;28;20616;-49
2022/05/12 07:19:52;;;;;;;;;;;23.90;56.70;;;;;;4997289;28;19914;-51
2022/05/12 07:27:45;;;;;;;;;;;23.80;57.00;;;;;;5003441;28;20220;-52
2022/05/12 07:30:11;;;;;;;;;;;23.80;56.90;;;;;;4996571;28;19918;-57
2022/05/12 07:32:37;;;;;;;;;;;23.90;57.10;;;;;;4981954;28;19918;-52
2022/05/12 07:35:06;;;;;;;;;;;23.80;56.80;;;;;;4986690;28;19913;-53
2022/05/12 07:37:31;;;;;;;;;;;23.90;56.90;;;;;;4982523;28;20646;-55
2022/05/12 07:39:57;;;;;;;;;;;23.90;57.00;;;;;;4990642;28;19918;-57
2022/05/12 07:42:22;;;;;;;;;;;23.90;56.80;;;;;;4981205;28;20379;-52
2022/05/12 07:44:47;;;;;;;;;;;23.90;56.10;;;;;;4981903;28;20559;-55
2022/05/12 07:47:13;;;;;;;;;;;23.90;55.30;;;;;;5001590;28;20099;-53
2022/05/12 07:49:39;;;;;;;;;;;23.90;55.20;;;;;;5000560;28;19971;-52
2022/05/12 07:52:06;;;;;;;;;;;23.90;54.90;;;;;;4983111;28;19940;-55
2022/05/12 07:54:31;;;;;;;;;;;23.90;55.20;;;;;;4981820;28;19914;-55
2022/05/12 07:56:57;;;;;;;;;;;23.90;56.00;;;;;;4998765;28;19917;-53
2022/05/12 07:59:23;;;;;;;;;;;23.90;55.30;;;;;;5001242;28;19923;-53
2022/05/12 08:01:48;;;;;;;;;;;23.90;55.10;;;;;;4984225;28;19921;-51
2022/05/12 08:04:14;;;;;;;;;;;23.90;55.10;;;;;;4982084;28;19957;-58
2022/05/12 08:06:40;;;;;;;;;;;23.90;55.20;;;;;;4994914;28;20362;-51
2022/05/12 08:09:05;;;;;;;;;;;23.90;56.20;;;;;;5000108;28;19928;-52
2022/05/12 08:11:31;;;;;;;;;;;23.90;56.00;;;;;;4989569;28;19967;-49
2022/05/12 08:13:57;;;;;;;;;;;23.90;55.60;;;;;;4981404;28;20380;-49
2022/05/12 08:16:22;;;;;;;;;;;23.90;55.80;;;;;;4980803;28;20012;-51
2022/05/12 08:18:49;;;;;;;;;;;23.90;55.50;;;;;;4978847;28;20434;-54
2022/05/12 08:21:15;;;;;;;;;;;23.90;55.50;;;;;;4988422;28;19922;-50
2022/05/12 08:23:41;;;;;;;;;;;23.90;55.60;;;;;;5002530;28;19918;-51
2022/05/12 08:26:06;;;;;;;;;;;23.90;55.60;;;;;;4995726;28;19945;-54
2022/05/12 08:28:32;;;;;;;;;;;23.90;55.50;;;;;;4978604;28;19914;-52
2022/05/12 08:30:57;;;;;;;;;;;23.90;55.50;;;;;;4983647;28;19921;-53
2022/05/12 08:33:23;;;;;;;;;;;23.90;55.60;;;;;;5001371;28;19973;-52
2022/05/12 08:35:48;;;;;;;;;;;23.90;55.70;;;;;;4997584;28;19999;-56
2022/05/12 08:38:14;;;;;;;;;;;23.90;55.50;;;;;;4982553;28;19921;-52
2022/05/12 08:40:43;;;;;;;;;;;23.90;55.50;;;;;;4979853;28;19921;-51
2022/05/12 08:43:19;;;;;;;;;;;23.90;55.80;;;;;;5001887;28;19968;-53
2022/05/12 08:45:44;;;;;;;;;;;23.90;55.90;;;;;;4999407;28;20027;-55
2022/05/12 08:48:11;;;;;;;;;;;23.90;56.40;;;;;;4981065;28;19929;-53
2022/05/12 08:50:37;;;;;;;;;;;23.90;56.00;;;;;;4978548;28;20069;-52
2022/05/12 08:53:05;;;;;;;;;;;23.90;56.00;;;;;;4999927;28;19992;-54
2022/05/12 08:55:31;;;;;;;;;;;23.90;55.90;;;;;;5002143;28;19918;-54
2022/05/12 08:58:06;;;;;;;;;;;23.90;56.10;;;;;;4985467;28;19918;-52
2022/05/12 09:00:40;;;;;;;;;;;23.90;55.90;;;;;;4979205;28;20418;-54
2022/05/12 09:03:13;;;;;;;;;;;23.90;55.80;;;;;;4998976;28;20044;-53
2022/05/12 09:06:00;;;;;;;;;;;23.90;55.70;;;;;;5001170;28;20374;-53
2022/05/12 09:08:35;;;;;;;;;;;23.90;55.80;;;;;;4979358;28;20430;-54
2022/05/12 09:11:06;;;;;;;;;;;23.90;55.90;;;;;;4980915;28;19922;-56
2022/05/12 09:13:33;;;;;;;;;;;23.90;55.80;;;;;;5002087;28;19913;-55
2022/05/12 09:16:08;;;;;;;;;;;23.90;55.80;;;;;;5003911;28;20469;-49
2022/05/12 09:18:34;;;;;;;;;;;23.90;55.90;;;;;;4984271;28;20000;-53
2022/05/12 09:21:03;;;;;;;;;;;23.80;56.10;;;;;;4983021;28;20688;-54
2022/05/12 09:23:28;;;;;;;;;;;23.90;55.80;;;;;;5002606;28;19996;-57
2022/05/12 09:25:54;;;;;;;;;;;23.90;55.70;;;;;;5004267;28;19932;-57
2022/05/12 09:28:27;;;;;;;;;;;23.90;55.90;;;;;;4989024;28;19925;-52
2022/05/12 09:30:52;;;;;;;;;;;23.90;56.00;;;;;;4984542;28;20008;-56
2022/05/12 09:33:29;;;;;;;;;;;23.90;55.70;;;;;;4998700;28;20024;-55
2022/05/12 09:35:56;;;;;;;;;;;23.90;55.70;;;;;;5003366;28;20008;-54
2022/05/12 09:38:23;;;;;;;;;;;23.90;55.70;;;;;;4987877;28;19917;-58
2022/05/12 09:40:48;;;;;;;;;;;23.90;55.90;;;;;;4973975;28;20682;-56
2022/05/12 09:43:34;;;;;;;;;;;23.90;55.80;;;;;;5012994;28;19917;-51
2022/05/12 09:46:03;;;;;;;;;;;23.90;55.80;;;;;;5003015;28;20041;-56
2022/05/12 09:48:29;;;;;;;;;;;23.90;55.70;;;;;;4987691;28;19975;-54
2022/05/12 09:51:11;;;;;;;;;;;23.90;55.90;;;;;;4983107;28;19921;-53
2022/05/12 09:53:37;;;;;;;;;;;23.90;56.10;;;;;;4999692;28;20348;-52
2022/05/12 09:56:23;;;;;;;;;;;23.90;55.90;;;;;;5004651;28;20283;-56
2022/05/12 09:58:50;;;;;;;;;;;23.90;55.70;;;;;;4976573;28;19918;-53
2022/05/12 10:01:18;;;;;;;;;;;23.90;55.80;;;;;;4984402;28;20005;-56
2022/05/12 10:09:19;;;;;;;;;;;23.90;55.80;;;;;;4975206;28;19937;-51
2022/05/12 10:12:06;;;;;;;;;;;23.90;55.80;;;;;;4984667;28;19918;-49
2022/05/12 10:14:48;;;;;;;;;;;23.90;55.90;;;;;;5003115;28;20330;-56
2022/05/12 10:17:14;;;;;;;;;;;24.00;55.80;;;;;;5002386;28;19964;-54
2022/05/12 10:19:39;;;;;;;;;;;23.90;55.70;;;;;;4980932;28;19921;-52
2022/05/12 10:22:05;;;;;;;;;;;23.90;55.70;;;;;;4992555;28;19998;-51
2022/05/12 10:24:39;;;;;;;;;;;24.00;55.70;;;;;;4997174;28;19928;-52
2022/05/12 10:27:09;;;;;;;;;;;24.00;55.80;;;;;;5002012;28;20493;-54
2022/05/12 10:29:43;;;;;;;;;;;24.00;55.80;;;;;;4982341;28;19964;-52
2022/05/12 10:32:28;;;;;;;;;;;24.00;55.80;;;;;;4983824;28;19925;-50
2022/05/12 10:35:02;;;;;;;;;;;24.00;55.90;;;;;;5001896;28;19913;-56
2022/05/12 10:37:34;;;;;;;;;;;24.00;55.80;;;;;;5002953;28;19996;-49
2022/05/12 10:40:15;;;;;;;;;;;23.90;55.90;;;;;;4982928;28;19961;-56
2022/05/12 10:42:45;;;;;;;;;;;24.00;55.90;;;;;;4984683;28;20379;-55
2022/05/12 10:45:19;;;;;;;;;;;24.00;55.90;;;;;;5003481;28;19921;-50
2022/05/12 10:48:03;;;;;;;;;;;23.90;55.90;;;;;;5001394;28;19917;-56
2022/05/12 10:50:35;;;;;;;;;;;24.00;56.00;;;;;;4982536;28;20051;-56
2022/05/12 10:53:19;;;;;;;;;;;24.00;56.10;;;;;;4985453;28;19914;-51
2022/05/12 10:55:51;;;;;;;;;;;24.00;56.00;;;;;;5003859;28;19984;-49
2022/05/12 10:58:23;;;;;;;;;;;23.90;55.90;;;;;;5001911;28;19928;-52
2022/05/12 11:00:59;;;;;;;;;;;23.90;56.00;;;;;;4983445;28;19972;-58
2022/05/12 11:03:26;;;;;;;;;;;24.00;56.00;;;;;;4987249;28;19918;-51
2022/05/12 11:05:54;;;;;;;;;;;24.00;56.00;;;;;;5002146;28;19940;-53
2022/05/12 11:08:21;;;;;;;;;;;24.00;56.00;;;;;;4998495;28;20410;-55
2022/05/12 11:10:51;;;;;;;;;;;23.90;55.90;;;;;;4981704;28;19929;-54
2022/05/12 11:13:22;;;;;;;;;;;23.90;55.90;;;;;;4981624;28;19925;-54
2022/05/12 11:15:50;;;;;;;;;;;23.90;56.00;;;;;;5001715;28;19956;-52
2022/05/12 11:18:18;;;;;;;;;;;24.00;56.00;;;;;;5001550;28;20327;-54
2022/05/12 11:20:44;;;;;;;;;;;24.00;56.00;;;;;;4982397;28;20552;-51
2022/05/12 11:23:15;;;;;;;;;;;24.00;56.10;;;;;;4981932;28;20411;-55
2022/05/12 11:25:47;;;;;;;;;;;24.00;56.00;;;;;;5001179;28;19976;-53
2022/05/12 11:31:24;;;;;;;;;;;24.00;56.00;;;;;;4980626;28;20347;-52
2022/05/12 11:33:53;;;;;;;;;;;24.00;56.00;;;;;;4978953;28;19968;-60
2022/05/12 11:36:19;;;;;;;;;;;24.00;56.00;;;;;;4985054;28;19924;-53
2022/05/12 11:38:46;;;;;;;;;;;24.00;56.10;;;;;;5000295;28;19918;-53
2022/05/12 11:41:20;;;;;;;;;;;24.00;56.10;;;;;;4981014;28;19942;-52
2022/05/12 11:46:49;;;;;;;;;;;24.00;56.00;;;;;;5002028;28;19921;-55
2022/05/12 11:49:20;;;;;;;;;;;24.00;56.00;;;;;;4996866;28;19913;-51
2022/05/12 11:52:02;;;;;;;;;;;24.00;56.00;;;;;;4982922;28;19929;-53
2022/05/12 11:54:30;;;;;;;;;;;24.00;56.10;;;;;;4987374;28;19957;-53
2022/05/12 11:56:56;;;;;;;;;;;24.00;56.10;;;;;;5002128;28;19917;-53
2022/05/12 11:59:24;;;;;;;;;;;24.00;56.10;;;;;;4996228;28;19945;-56
2022/05/12 12:01:52;;;;;;;;;;;24.00;56.00;;;;;;4982366;28;19948;-54
2022/05/12 12:04:38;;;;;;;;;;;24.00;56.10;;;;;;4984945;28;20083;-55
2022/05/12 12:07:04;;;;;;;;;;;24.00;56.20;;;;;;5001451;28;20004;-55
2022/05/12 12:09:35;;;;;;;;;;;24.00;56.10;;;;;;4997048;28;20578;-56
2022/05/12 12:12:02;;;;;;;;;;;24.00;56.10;;;;;;4981237;28;19968;-55
2022/05/12 12:14:43;;;;;;;;;;;23.90;56.00;;;;;;4984684;28;19964;-55
2022/05/12 12:17:14;;;;;;;;;;;24.00;56.10;;;;;;5001996;28;19913;-54
2022/05/12 12:19:41;;;;;;;;;;;24.00;56.10;;;;;;4997438;28;20041;-54
2022/05/12 12:22:21;;;;;;;;;;;24.00;56.10;;;;;;4981082;28;20433;-52
2022/05/12 12:24:55;;;;;;;;;;;24.00;56.10;;;;;;4985585;28;19925;-51
2022/05/12 12:27:32;;;;;;;;;;;24.00;56.10;;;;;;5000582;28;19984;-56
2022/05/12 12:30:20;;;;;;;;;;;24.00;56.00;;;;;;4996566;28;19917;-52
2022/05/12 12:33:04;;;;;;;;;;;24.00;56.00;;;;;;4963197;28;20012;-55
2022/05/12 12:35:30;;;;;;;;;;;24.00;56.00;;;;;;4990784;28;20375;-54
2022/05/12 12:37:55;;;;;;;;;;;24.00;56.00;;;;;;5001418;28;19947;-53
2022/05/12 12:40:30;;;;;;;;;;;24.00;56.00;;;;;;4976921;28;19925;-55
2022/05/12 12:42:55;;;;;;;;;;;24.00;56.00;;;;;;4982454;28;19925;-53
2022/05/12 12:45:21;;;;;;;;;;;24.00;56.00;;;;;;4986892;28;19921;-55
2022/05/12 12:47:49;;;;;;;;;;;24.00;56.00;;;;;;4985601;28;19990;-53
2022/05/12 12:50:21;;;;;;;;;;;24.00;56.00;;;;;;4987230;28;19928;-52
2022/05/12 12:52:46;;;;;;;;;;;24.00;56.00;;;;;;4985682;28;19918;-52
2022/05/12 12:58:00;;;;;;;;;;;24.00;56.20;;;;;;4986485;28;19920;-53
2022/05/12 13:00:29;;;;;;;;;;;24.00;56.20;;;;;;4981069;28;19913;-54
2022/05/12 13:03:05;;;;;;;;;;;24.00;56.20;;;;;;5004355;28;19913;-54
2022/05/12 13:05:31;;;;;;;;;;;24.00;56.20;;;;;;5001623;28;19925;-53
2022/05/12 13:08:00;;;;;;;;;;;24.00;56.20;;;;;;4984847;28;19922;-54
2022/05/12 13:10:26;;;;;;;;;;;24.00;56.20;;;;;;4986865;28;19932;-53
2022/05/12 13:13:02;;;;;;;;;;;24.00;56.20;;;;;;5004678;28;19913;-51
2022/05/12 13:15:27;;;;;;;;;;;24.00;56.20;;;;;;5003321;28;19922;-54
2022/05/12 13:17:55;;;;;;;;;;;24.00;56.30;;;;;;4984825;28;20413;-51
2022/05/12 13:20:22;;;;;;;;;;;24.00;56.20;;;;;;4983898;28;19928;-54
2022/05/12 13:22:49;;;;;;;;;;;24.00;56.10;;;;;;5004578;28;19917;-51
2022/05/12 13:25:17;;;;;;;;;;;24.00;56.20;;;;;;5004054;28;20047;-52
2022/05/12 13:27:42;;;;;;;;;;;24.00;56.10;;;;;;4984450;28;20025;-53
2022/05/12 13:30:13;;;;;;;;;;;24.10;56.10;;;;;;4982679;28;19924;-56
2022/05/12 13:32:49;;;;;;;;;;;24.00;56.10;;;;;;5001635;28;19931;-52
2022/05/12 13:35:16;;;;;;;;;;;24.10;56.10;;;;;;5003411;28;19913;-53
2022/05/12 13:38:13;;;;;;;;;;;24.10;56.10;;;;;;4985328;28;19918;-54
2022/05/12 13:40:41;;;;;;;;;;;24.10;56.10;;;;;;4975329;28;19953;-53
2022/05/12 13:43:25;;;;;;;;;;;24.10;56.10;;;;;;5004194;28;20020;-54
2022/05/12 13:46:04;;;;;;;;;;;24.10;56.00;;;;;;5003573;28;19913;-52
2022/05/12 13:48:30;;;;;;;;;;;24.10;56.10;;;;;;4983405;28;19918;-53
2022/05/12 13:50:57;;;;;;;;;;;24.10;56.00;;;;;;4984094;28;19922;-54
2022/05/12 13:53:23;;;;;;;;;;;24.10;56.10;;;;;;5004472;28;19914;-52
2022/05/12 13:56:03;;;;;;;;;;;24.00;56.10;;;;;;5004764;28;19913;-52
2022/05/12 13:58:28;;;;;;;;;;;24.10;56.20;;;;;;4983418;28;19913;-54
2022/05/12 14:00:54;;;;;;;;;;;24.00;56.10;;;;;;4983949;28;19963;-54
2022/05/12 14:03:20;;;;;;;;;;;24.10;56.20;;;;;;5003971;28;19917;-53
2022/05/12 14:05:45;;;;;;;;;;;24.10;56.20;;;;;;5003492;28;19921;-51
2022/05/12 14:08:31;;;;;;;;;;;24.00;56.70;;;;;;4985196;28;19913;-53
2022/05/12 14:11:00;;;;;;;;;;;24.00;56.10;;;;;;4974698;28;19918;-54
2022/05/12 14:19:18;;;;;;;;;;;24.00;56.10;;;;;;4981883;28;20339;-54
2022/05/12 14:21:50;;;;;;;;;;;24.10;56.20;;;;;;4987650;28;19913;-52
2022/05/12 14:24:16;;;;;;;;;;;24.10;56.20;;;;;;5003944;28;19918;-55
2022/05/12 14:26:42;;;;;;;;;;;24.10;56.20;;;;;;5000164;28;20015;-52
2022/05/12 14:29:07;;;;;;;;;;;24.00;56.10;;;;;;4981685;28;20305;-54
2022/05/12 14:31:35;;;;;;;;;;;24.10;56.20;;;;;;4983292;28;19922;-54
2022/05/12 14:34:00;;;;;;;;;;;24.10;56.10;;;;;;5003254;28;19914;-52
2022/05/12 14:36:26;;;;;;;;;;;24.10;56.10;;;;;;5003650;28;19943;-51
2022/05/12 14:38:52;;;;;;;;;;;24.10;56.10;;;;;;4984786;28;19981;-55
2022/05/12 14:41:17;;;;;;;;;;;24.10;56.10;;;;;;4977272;28;19917;-54
2022/05/12 14:43:43;;;;;;;;;;;24.10;56.10;;;;;;5012873;28;19917;-54
2022/05/12 14:46:09;;;;;;;;;;;24.10;56.10;;;;;;5003516;28;20436;-51
2022/05/12 14:48:34;;;;;;;;;;;24.10;56.10;;;;;;4986381;28;19921;-52
2022/05/12 14:51:00;;;;;;;;;;;24.10;56.10;;;;;;4998839;23;19929;-53
2022/05/12 14:53:25;;;;;;;;;;;24.10;56.00;;;;;;5003834;28;19918;-56